Time;durP1;ratioP1;P1;durP2;ratioP2;P2;SDS_P1;SDS_P2;PMS_P1;PMS_P2;Temp;Humidity;BMP_temperature;BMP_pressure;BME280_temperature;BME280_humidity;BME280_pressure;Samples;Min_cycle;Max_cycle;Signal;HPM_P1;HPM_P2
2021/07/19 00:01:37;;;;;;;5.18;4.50;;;24.50;64.90;;;;;;5074162;28;20195;-89
2021/07/19 00:04:03;;;;;;;4.55;4.15;;;24.60;64.90;;;;;;5073845;28;20179;-89
2021/07/19 00:06:29;;;;;;;5.38;4.63;;;24.60;65.00;;;;;;5053095;28;20177;-89
2021/07/19 00:08:54;;;;;;;5.57;4.20;;;24.50;65.20;;;;;;5044956;28;20224;-89
2021/07/19 00:11:20;;;;;;;5.28;4.40;;;24.50;65.60;;;;;;5066197;28;20242;-89
2021/07/19 00:13:46;;;;;;;5.80;4.30;;;24.30;66.00;;;;;;5073722;28;20187;-91
2021/07/19 00:16:13;;;;;;;4.82;4.43;;;24.10;67.00;;;;;;5069963;28;20293;-90
2021/07/19 00:18:39;;;;;;;4.57;4.18;;;23.80;68.10;;;;;;5058480;28;20176;-90
2021/07/19 00:21:05;;;;;;;4.70;4.30;;;23.50;69.30;;;;;;5071328;28;20202;-89
2021/07/19 00:23:31;;;;;;;5.80;4.47;;;23.20;70.70;;;;;;5070470;28;20255;-90
2021/07/19 00:25:56;;;;;;;4.85;4.35;;;23.00;72.10;;;;;;5083277;28;20191;-91
2021/07/19 00:28:22;;;;;;;4.95;4.50;;;22.80;72.70;;;;;;5072083;28;20176;-91
2021/07/19 00:30:48;;;;;;;5.93;4.63;;;22.70;73.20;;;;;;5063265;28;20682;-90
2021/07/19 00:33:14;;;;;;;6.13;4.50;;;22.70;73.20;;;;;;5065635;28;20216;-90
2021/07/19 00:35:40;;;;;;;4.78;4.38;;;22.70;72.70;;;;;;5077116;28;20202;-90
2021/07/19 00:38:06;;;;;;;6.22;4.60;;;22.80;72.50;;;;;;5042232;28;20279;-90
2021/07/19 00:40:35;;;;;;;4.88;4.47;;;22.70;72.80;;;;;;5074560;28;20688;-91
2021/07/19 00:43:01;;;;;;;6.05;4.22;;;22.70;73.20;;;;;;5083522;28;20199;-90
2021/07/19 00:45:29;;;;;;;4.88;4.40;;;22.50;74.00;;;;;;5074344;28;20196;-90
2021/07/19 00:47:57;;;;;;;5.40;4.18;;;22.50;74.10;;;;;;5077895;28;20178;-90
2021/07/19 00:50:24;;;;;;;5.93;5.05;;;22.50;74.00;;;;;;5077449;28;20251;-89
2021/07/19 00:52:56;;;;;;;6.32;5.03;;;22.40;74.60;;;;;;5080252;28;20299;-90
2021/07/19 00:55:26;;;;;;;4.93;4.43;;;22.40;74.00;;;;;;5049371;28;20167;-90
2021/07/19 00:57:54;;;;;;;5.13;4.25;;;22.40;74.00;;;;;;5065989;28;20157;-90
2021/07/19 01:00:20;;;;;;;5.05;4.55;;;22.50;73.70;;;;;;5049463;28;20208;-92
2021/07/19 01:02:49;;;;;;;6.70;5.20;;;22.60;73.60;;;;;;5077202;28;20210;-88
2021/07/19 01:05:15;;;;;;;5.20;4.68;;;22.50;74.00;;;;;;5086564;28;20176;-90
2021/07/19 01:07:43;;;;;;;5.40;4.30;;;22.30;74.90;;;;;;5086686;28;20184;-90
2021/07/19 01:10:14;;;;;;;4.88;4.43;;;22.20;75.70;;;;;;5073262;28;20192;-90
2021/07/19 01:12:41;;;;;;;5.18;4.18;;;22.10;76.20;;;;;;5071608;28;20200;-90
2021/07/19 01:15:08;;;;;;;9.02;4.95;;;22.10;76.50;;;;;;5061533;28;20179;-89
2021/07/19 01:17:34;;;;;;;4.72;4.28;;;22.00;76.90;;;;;;5083653;28;20183;-89
2021/07/19 01:20:00;;;;;;;5.03;4.50;;;22.20;76.00;;;;;;5077012;28;20215;-89
2021/07/19 01:22:51;;;;;;;4.25;3.95;;;22.30;74.80;;;;;;5047754;28;20685;-89
2021/07/19 01:25:45;;;;;;;4.50;4.20;;;22.60;73.80;;;;;;5065296;28;20669;-90
2021/07/19 01:28:13;;;;;;;5.38;4.60;;;22.80;73.00;;;;;;5068741;28;20203;-89
2021/07/19 01:30:41;;;;;;;4.65;4.25;;;22.80;72.50;;;;;;5085187;28;21536;-89
2021/07/19 01:33:07;;;;;;;4.47;4.07;;;22.90;72.00;;;;;;5086688;28;20203;-88
2021/07/19 01:35:37;;;;;;;5.18;4.68;;;23.00;71.50;;;;;;5084328;28;20215;-91
2021/07/19 01:38:05;;;;;;;5.75;4.47;;;23.00;71.40;;;;;;5066292;28;20184;-89
2021/07/19 01:40:31;;;;;;;7.03;4.30;;;23.00;71.30;;;;;;5078715;28;20292;-91
2021/07/19 01:42:58;;;;;;;6.40;4.43;;;23.10;71.00;;;;;;5065759;28;20200;-88
2021/07/19 01:45:23;;;;;;;5.03;4.53;;;23.10;70.80;;;;;;5031406;28;20184;-90
2021/07/19 01:47:50;;;;;;;4.70;4.30;;;23.20;70.70;;;;;;5047534;28;20187;-90
2021/07/19 01:50:16;;;;;;;5.55;4.93;;;23.20;70.50;;;;;;5066032;28;20180;-90
2021/07/19 01:52:43;;;;;;;5.07;4.68;;;23.20;70.40;;;;;;5066147;28;20211;-90
2021/07/19 01:55:11;;;;;;;5.88;4.53;;;23.10;70.70;;;;;;5072193;28;20188;-90
2021/07/19 01:57:37;;;;;;;5.88;4.40;;;23.20;70.50;;;;;;5067769;28;20183;-89
2021/07/19 02:00:08;;;;;;;4.70;4.25;;;23.20;70.20;;;;;;5085226;28;20250;-90
2021/07/19 02:02:39;;;;;;;5.63;5.03;;;23.30;70.00;;;;;;5067102;28;20222;-89
2021/07/19 02:05:08;;;;;;;4.55;4.03;;;23.00;70.20;;;;;;5086077;28;20163;-90
2021/07/19 02:07:36;;;;;;;5.00;4.57;;;22.80;71.10;;;;;;5086470;28;20411;-90
2021/07/19 02:10:03;;;;;;;4.97;4.55;;;22.60;71.90;;;;;;5045850;28;20193;-88
2021/07/19 02:12:29;;;;;;;5.40;4.40;;;22.40;72.20;;;;;;5047311;28;20208;-90
2021/07/19 02:14:55;;;;;;;4.97;4.53;;;22.50;72.50;;;;;;5047666;28;20206;-90
2021/07/19 02:17:22;;;;;;;6.30;4.47;;;22.30;72.80;;;;;;5065774;28;20177;-90
2021/07/19 02:19:50;;;;;;;6.35;4.30;;;22.50;73.00;;;;;;5047797;28;20216;-90
2021/07/19 02:22:18;;;;;;;4.65;4.25;;;22.50;72.60;;;;;;5064665;28;20191;-90
2021/07/19 02:24:47;;;;;;;5.45;4.57;;;22.50;72.20;;;;;;5030267;28;20267;-89
2021/07/19 02:27:15;;;;;;;5.63;4.78;;;22.30;72.80;;;;;;5046485;28;20686;-89
2021/07/19 02:29:41;;;;;;;4.53;4.13;;;22.30;73.00;;;;;;5047183;28;20184;-89
2021/07/19 02:32:07;;;;;;;5.53;4.00;;;22.40;72.70;;;;;;5064887;28;20301;-90
2021/07/19 02:34:33;;;;;;;6.15;4.55;;;22.40;72.50;;;;;;5064800;28;20200;-89
2021/07/19 02:36:59;;;;;;;5.07;4.57;;;22.50;72.40;;;;;;5030179;28;20184;-90
2021/07/19 02:39:27;;;;;;;4.55;4.15;;;22.50;72.40;;;;;;5064737;28;20187;-90
2021/07/19 02:41:54;;;;;;;5.10;4.25;;;22.50;73.10;;;;;;5079059;28;20199;-90
2021/07/19 02:44:20;;;;;;;4.80;4.40;;;22.40;72.90;;;;;;5084850;28;20187;-90
2021/07/19 02:46:50;;;;;;;4.95;4.45;;;22.40;72.80;;;;;;5049043;28;20184;-89
2021/07/19 02:49:16;;;;;;;4.65;4.22;;;22.30;72.80;;;;;;5084692;28;20258;-90
2021/07/19 02:51:42;;;;;;;5.00;4.28;;;22.30;73.00;;;;;;5051111;28;20200;-89
2021/07/19 02:54:09;;;;;;;4.63;4.13;;;22.20;72.70;;;;;;5046353;28;20180;-90
2021/07/19 02:56:39;;;;;;;5.20;4.18;;;22.20;72.70;;;;;;5045399;28;20279;-90
2021/07/19 02:59:04;;;;;;;4.82;4.43;;;22.30;72.70;;;;;;5082759;28;20218;-90
2021/07/19 03:01:32;;;;;;;4.57;4.13;;;22.30;72.70;;;;;;5083476;28;20231;-90
2021/07/19 03:04:00;;;;;;;5.47;4.70;;;22.20;72.80;;;;;;5084103;28;20182;-90
2021/07/19 03:06:31;;;;;;;5.40;4.65;;;22.30;72.50;;;;;;5065287;28;20206;-90
2021/07/19 03:08:58;;;;;;;4.53;4.13;;;22.30;72.20;;;;;;5063103;28;20165;-90
2021/07/19 03:11:36;;;;;;;5.18;4.60;;;22.30;72.10;;;;;;5063980;28;20223;-89
2021/07/19 03:14:04;;;;;;;6.47;4.30;;;22.00;72.90;;;;;;5066102;28;20317;-90
2021/07/19 03:16:30;;;;;;;5.97;4.53;;;21.80;74.50;;;;;;5064759;28;20172;-89
2021/07/19 03:19:02;;;;;;;5.30;4.90;;;21.70;75.10;;;;;;5064313;28;20251;-89
2021/07/19 03:21:30;;;;;;;5.47;4.63;;;21.60;75.60;;;;;;5029355;28;20212;-89
2021/07/19 03:23:58;;;;;;;6.63;4.90;;;21.60;75.80;;;;;;5064272;28;20639;-89
2021/07/19 03:26:25;;;;;;;5.85;4.88;;;21.70;75.00;;;;;;5064018;28;20180;-89
2021/07/19 03:28:52;;;;;;;6.32;4.95;;;21.80;74.40;;;;;;5046063;28;20180;-89
2021/07/19 03:31:19;;;;;;;4.97;4.57;;;21.70;75.00;;;;;;5045594;28;20264;-89
2021/07/19 03:33:47;;;;;;;4.68;4.25;;;21.50;75.80;;;;;;5063824;28;20185;-89
2021/07/19 03:36:14;;;;;;;6.78;4.70;;;21.50;75.90;;;;;;5063778;28;20180;-90
2021/07/19 03:38:43;;;;;;;9.15;5.10;;;21.50;75.20;;;;;;5046329;28;20176;-89
2021/07/19 03:41:11;;;;;;;5.70;4.60;;;21.50;75.30;;;;;;5063357;28;20279;-90
2021/07/19 03:43:37;;;;;;;7.57;4.90;;;21.50;75.30;;;;;;5063576;28;20236;-89
2021/07/19 03:46:03;;;;;;;5.40;4.95;;;21.40;75.40;;;;;;5061568;28;20646;-90
2021/07/19 03:48:30;;;;;;;5.80;4.78;;;21.30;75.90;;;;;;5059938;28;20198;-90
2021/07/19 03:50:56;;;;;;;6.05;5.00;;;21.20;76.40;;;;;;5059916;28;20223;-90
2021/07/19 03:53:23;;;;;;;5.57;5.10;;;20.80;77.70;;;;;;5059785;28;20202;-90
2021/07/19 03:55:51;;;;;;;4.75;4.38;;;20.70;79.10;;;;;;5042481;28;20212;-90
2021/07/19 03:58:19;;;;;;;6.70;5.43;;;20.70;79.30;;;;;;5043611;28;20186;-90
2021/07/19 04:00:45;;;;;;;4.90;4.50;;;20.60;79.50;;;;;;5061470;28;20288;-90
2021/07/19 04:03:25;;;;;;;21.80;6.97;;;20.80;79.20;;;;;;5027551;28;20217;-88
2021/07/19 04:06:02;;;;;;;5.95;4.53;;;21.00;77.70;;;;;;5056879;28;20182;-89
2021/07/19 04:08:34;;;;;;;5.85;5.15;;;21.10;77.80;;;;;;5082122;28;20167;-88
2021/07/19 04:11:00;;;;;;;4.80;4.40;;;21.20;77.10;;;;;;5082345;28;20171;-89
2021/07/19 04:13:27;;;;;;;5.07;4.57;;;21.20;76.40;;;;;;5084484;28;20179;-89
2021/07/19 04:15:53;;;;;;;4.53;4.13;;;21.30;76.50;;;;;;5085590;28;20209;-89
2021/07/19 04:18:21;;;;;;;6.22;4.68;;;21.30;76.00;;;;;;5085428;28;20611;-89
2021/07/19 04:20:49;;;;;;;8.52;5.78;;;21.30;75.50;;;;;;5083980;28;20210;-89
2021/07/19 04:23:15;;;;;;;6.95;4.32;;;21.30;75.20;;;;;;5050594;28;20277;-89
2021/07/19 04:25:42;;;;;;;7.40;5.57;;;21.30;75.50;;;;;;5046479;28;20195;-89
2021/07/19 04:28:08;;;;;;;6.97;4.95;;;21.10;75.70;;;;;;5063883;28;20176;-89
2021/07/19 04:30:36;;;;;;;5.75;4.45;;;21.20;76.00;;;;;;5063867;28;20194;-89
2021/07/19 04:33:03;;;;;;;7.60;4.80;;;21.20;75.70;;;;;;5061209;28;20199;-89
2021/07/19 04:35:29;;;;;;;5.10;4.60;;;21.10;76.00;;;;;;5062822;28;20542;-89
2021/07/19 04:37:56;;;;;;;6.25;4.70;;;21.10;76.70;;;;;;5080542;28;20183;-89
2021/07/19 04:40:24;;;;;;;5.28;4.60;;;21.00;77.00;;;;;;5062415;28;20207;-88
2021/07/19 04:42:50;;;;;;;5.50;4.40;;;21.00;77.30;;;;;;5062405;28;20758;-89
2021/07/19 04:45:19;;;;;;;4.88;4.32;;;20.90;78.20;;;;;;5080385;28;20216;-89
2021/07/19 04:47:48;;;;;;;8.52;4.53;;;20.90;78.60;;;;;;5043008;28;20187;-88
2021/07/19 04:50:16;;;;;;;4.93;4.43;;;20.90;78.40;;;;;;5064292;28;20173;-90
2021/07/19 04:52:42;;;;;;;5.30;4.80;;;21.00;78.00;;;;;;5080371;28;20193;-89
2021/07/19 04:55:10;;;;;;;5.40;4.80;;;21.00;78.00;;;;;;5080552;28;20228;-89
2021/07/19 04:57:38;;;;;;;5.03;4.35;;;21.10;77.70;;;;;;5080282;28;20187;-89
2021/07/19 05:00:05;;;;;;;5.68;4.65;;;21.20;77.60;;;;;;5080369;28;20214;-89
2021/07/19 05:02:34;;;;;;;5.22;4.72;;;21.30;77.20;;;;;;5061916;28;20196;-89
2021/07/19 05:05:01;;;;;;;6.47;5.22;;;21.30;77.20;;;;;;5080298;28;20188;-89
2021/07/19 05:07:32;;;;;;;7.55;4.90;;;21.20;77.60;;;;;;5080531;28;20199;-89
2021/07/19 05:10:00;;;;;;;6.72;4.78;;;21.20;77.80;;;;;;5068703;28;20252;-89
2021/07/19 05:12:29;;;;;;;5.30;4.80;;;21.20;78.00;;;;;;5064089;28;20211;-90
2021/07/19 05:14:55;;;;;;;5.97;5.10;;;21.20;78.10;;;;;;5064009;28;20187;-89
2021/07/19 05:17:21;;;;;;;6.45;5.15;;;21.20;78.70;;;;;;5064126;28;20312;-89
2021/07/19 05:19:48;;;;;;;5.45;5.03;;;21.00;79.30;;;;;;5065435;28;20215;-89
2021/07/19 05:22:15;;;;;;;5.20;4.72;;;21.00;80.10;;;;;;5046398;28;20529;-88
2021/07/19 05:24:42;;;;;;;4.80;4.40;;;20.90;80.40;;;;;;5064173;28;20228;-89
2021/07/19 05:27:09;;;;;;;6.18;5.63;;;21.00;80.30;;;;;;5046243;28;20202;-89
2021/07/19 05:29:36;;;;;;;9.32;5.80;;;21.10;79.70;;;;;;5063876;28;20210;-89
2021/07/19 05:32:06;;;;;;;7.43;5.10;;;21.10;79.10;;;;;;5063724;28;20634;-89
2021/07/19 05:34:32;;;;;;;8.15;5.13;;;21.20;79.30;;;;;;5063805;28;20183;-89
2021/07/19 05:36:58;;;;;;;7.32;5.68;;;21.20;79.60;;;;;;5063788;28;20212;-89
2021/07/19 05:39:25;;;;;;;6.13;5.63;;;21.20;79.30;;;;;;5063545;28;20209;-89
2021/07/19 05:41:50;;;;;;;7.30;6.53;;;21.20;78.90;;;;;;5063682;28;20278;-88
2021/07/19 05:44:16;;;;;;;9.00;6.57;;;21.40;78.50;;;;;;5047117;28;20203;-89
2021/07/19 05:46:42;;;;;;;8.95;6.70;;;21.30;78.10;;;;;;5077001;28;20212;-89
2021/07/19 05:49:08;;;;;;;7.85;6.95;;;21.20;78.90;;;;;;5084142;28;20178;-89
2021/07/19 05:51:33;;;;;;;7.80;7.10;;;21.20;78.20;;;;;;5069630;28;20658;-89
2021/07/19 05:54:01;;;;;;;7.40;6.78;;;21.20;78.70;;;;;;5046513;28;20185;-89
2021/07/19 05:56:27;;;;;;;8.05;6.43;;;21.20;78.60;;;;;;5064458;28;20271;-89
2021/07/19 05:58:53;;;;;;;7.78;7.07;;;21.20;78.00;;;;;;5046727;28;20178;-89
2021/07/19 06:01:19;;;;;;;7.90;7.05;;;21.10;78.30;;;;;;5064384;28;20287;-88
2021/07/19 06:03:44;;;;;;;9.27;7.07;;;21.20;78.20;;;;;;5079430;28;20177;-89
2021/07/19 06:06:10;;;;;;;8.05;7.20;;;21.20;78.20;;;;;;5083993;28;20180;-88
2021/07/19 06:08:36;;;;;;;6.95;6.35;;;21.20;78.30;;;;;;5084511;28;20226;-90
2021/07/19 06:11:02;;;;;;;7.50;6.80;;;21.30;77.40;;;;;;5066409;28;20211;-89
2021/07/19 06:13:27;;;;;;;7.60;6.90;;;21.40;77.60;;;;;;5065975;28;20196;-89
2021/07/19 06:15:53;;;;;;;8.55;7.20;;;21.40;77.60;;;;;;5083989;28;20184;-89
2021/07/19 06:18:19;;;;;;;8.07;7.32;;;21.40;77.70;;;;;;5066291;28;20188;-89
2021/07/19 06:20:45;;;;;;;10.98;7.20;;;21.40;77.00;;;;;;5059442;28;20224;-88
2021/07/19 06:23:11;;;;;;;7.20;6.50;;;21.40;76.90;;;;;;5084380;28;20198;-90
2021/07/19 06:25:41;;;;;;;7.55;6.85;;;21.50;76.60;;;;;;5084551;28;20226;-89
2021/07/19 06:28:08;;;;;;;8.85;6.85;;;21.50;76.70;;;;;;5083916;28;20180;-89
2021/07/19 06:30:34;;;;;;;8.55;7.63;;;21.50;76.70;;;;;;5083586;28;20220;-90
2021/07/19 06:32:59;;;;;;;9.88;7.20;;;21.60;76.10;;;;;;5073372;28;20213;-90
2021/07/19 06:35:25;;;;;;;7.35;6.72;;;21.60;76.10;;;;;;5056840;28;20653;-89
2021/07/19 06:37:51;;;;;;;7.70;6.97;;;21.60;76.60;;;;;;5084418;28;20192;-88
2021/07/19 06:40:18;;;;;;;7.32;6.63;;;21.70;77.00;;;;;;5082268;28;20273;-88
2021/07/19 06:42:44;;;;;;;10.85;7.38;;;21.80;77.30;;;;;;5082247;28;20192;-89
2021/07/19 06:45:11;;;;;;;10.50;7.70;;;21.90;76.20;;;;;;5054492;28;20177;-88
2021/07/19 06:47:39;;;;;;;11.48;7.55;;;21.90;75.10;;;;;;5062982;28;20431;-88
2021/07/19 06:50:09;;;;;;;9.10;7.57;;;21.90;76.30;;;;;;5075910;28;20202;-88
2021/07/19 06:52:36;;;;;;;8.48;7.45;;;21.90;75.70;;;;;;5074474;28;20203;-88
2021/07/19 06:55:04;;;;;;;8.63;7.40;;;22.00;75.50;;;;;;5072707;28;20180;-88
2021/07/19 06:57:29;;;;;;;7.63;6.93;;;22.10;75.20;;;;;;5073414;28;20212;-89
2021/07/19 06:59:55;;;;;;;7.78;7.07;;;22.10;75.10;;;;;;5062799;28;20208;-88
2021/07/19 07:02:21;;;;;;;7.63;6.93;;;22.20;74.50;;;;;;5072588;28;20560;-88
2021/07/19 07:04:47;;;;;;;7.63;6.95;;;22.30;74.70;;;;;;5063999;28;20578;-88
2021/07/19 07:07:12;;;;;;;7.93;6.68;;;22.40;74.50;;;;;;5083040;28;20175;-88
2021/07/19 07:09:38;;;;;;;7.25;6.55;;;22.60;73.80;;;;;;5048270;28;20195;-89
2021/07/19 07:12:05;;;;;;;7.68;6.88;;;22.70;74.00;;;;;;5081609;28;20267;-88
2021/07/19 07:14:31;;;;;;;8.88;7.07;;;22.70;73.80;;;;;;5068876;28;20666;-87
2021/07/19 07:16:57;;;;;;;7.57;6.88;;;22.70;73.30;;;;;;5069490;28;20260;-89
2021/07/19 07:19:23;;;;;;;7.95;7.25;;;22.70;73.70;;;;;;5039471;28;20184;-88
2021/07/19 07:21:49;;;;;;;7.65;6.95;;;22.80;73.40;;;;;;5060665;28;20208;-89
2021/07/19 07:24:14;;;;;;;7.55;6.80;;;22.70;72.90;;;;;;5061881;28;20179;-88
2021/07/19 07:26:40;;;;;;;7.93;7.13;;;22.70;73.80;;;;;;5067704;28;20199;-88
2021/07/19 07:29:06;;;;;;;7.10;6.40;;;22.80;72.70;;;;;;5064859;28;20190;-88
2021/07/19 07:31:32;;;;;;;9.05;6.88;;;22.90;72.30;;;;;;5080961;28;20777;-87
2021/07/19 07:33:58;;;;;;;10.82;9.02;;;22.90;72.70;;;;;;5059045;28;20192;-88
2021/07/19 07:36:25;;;;;;;10.75;7.20;;;23.00;71.60;;;;;;5061404;28;20188;-88
2021/07/19 07:38:52;;;;;;;7.85;7.05;;;23.10;71.10;;;;;;5060359;28;20212;-88
2021/07/19 07:41:18;;;;;;;8.48;7.07;;;23.20;71.50;;;;;;5060942;28;20290;-88
2021/07/19 07:43:45;;;;;;;8.63;7.03;;;23.40;70.80;;;;;;5061633;28;20176;-88
2021/07/19 07:46:11;;;;;;;7.22;6.22;;;23.40;70.80;;;;;;5061827;28;20206;-89
2021/07/19 07:48:37;;;;;;;7.78;7.07;;;23.50;70.20;;;;;;5061824;28;20172;-88
2021/07/19 07:51:04;;;;;;;7.25;6.55;;;23.70;69.70;;;;;;5071206;28;20191;-88
2021/07/19 07:53:30;;;;;;;9.55;6.93;;;23.80;69.20;;;;;;5082305;28;20255;-88
2021/07/19 07:55:57;;;;;;;8.55;7.15;;;23.80;69.40;;;;;;5081638;28;20180;-88
2021/07/19 07:58:24;;;;;;;9.02;7.30;;;23.80;69.10;;;;;;5081308;28;20172;-88
2021/07/19 08:00:50;;;;;;;9.40;7.65;;;23.90;69.50;;;;;;5063153;28;20211;-88
2021/07/19 08:03:16;;;;;;;11.00;7.82;;;23.80;69.30;;;;;;5065413;28;20264;-88
2021/07/19 08:05:41;;;;;;;7.88;7.18;;;23.80;69.40;;;;;;5067789;28;20187;-88
2021/07/19 08:08:07;;;;;;;8.70;7.13;;;23.80;69.00;;;;;;5081598;28;20171;-87
2021/07/19 08:10:33;;;;;;;9.05;6.78;;;23.90;69.00;;;;;;5081324;28;20302;-87
2021/07/19 08:12:59;;;;;;;7.22;6.57;;;23.90;68.80;;;;;;5081082;28;20232;-87
2021/07/19 08:15:25;;;;;;;11.23;7.50;;;24.20;69.10;;;;;;5081623;28;20606;-87
2021/07/19 08:17:51;;;;;;;7.90;6.68;;;24.20;67.60;;;;;;5080737;28;20181;-88
2021/07/19 08:20:17;;;;;;;10.38;6.90;;;24.40;66.70;;;;;;5063257;28;20773;-88
2021/07/19 08:22:45;;;;;;;11.27;7.50;;;24.50;65.90;;;;;;5062850;28;20199;-88
2021/07/19 08:25:11;;;;;;;12.25;7.32;;;24.50;65.60;;;;;;5063556;28;20203;-88
2021/07/19 08:27:37;;;;;;;8.23;7.22;;;24.60;65.90;;;;;;5030222;28;20191;-88
2021/07/19 08:30:05;;;;;;;7.93;6.22;;;24.60;64.90;;;;;;5082047;28;20474;-88
2021/07/19 08:32:30;;;;;;;7.25;6.38;;;24.80;64.90;;;;;;5069179;28;20239;-88
2021/07/19 08:34:56;;;;;;;9.68;6.32;;;24.90;64.90;;;;;;5060783;28;20558;-89
2021/07/19 08:37:22;;;;;;;10.38;7.43;;;25.00;64.30;;;;;;5062247;28;20244;-88
2021/07/19 08:39:47;;;;;;;7.40;6.65;;;25.10;64.10;;;;;;5043153;28;20705;-88
2021/07/19 08:42:13;;;;;;;7.05;6.35;;;25.00;64.60;;;;;;5060990;28;20204;-88
2021/07/19 08:44:41;;;;;;;7.47;6.78;;;24.90;64.70;;;;;;5061915;28;20177;-89
2021/07/19 08:47:11;;;;;;;6.75;6.07;;;25.10;64.80;;;;;;5066015;28;20186;-87
2021/07/19 08:49:38;;;;;;;6.30;5.80;;;25.20;64.20;;;;;;5049419;28;20258;-88
2021/07/19 08:52:05;;;;;;;6.90;6.20;;;25.30;63.10;;;;;;5066118;28;20192;-88
2021/07/19 08:54:38;;;;;;;8.35;6.93;;;25.60;62.50;;;;;;5048450;28;20180;-88
2021/07/19 08:57:05;;;;;;;7.70;6.50;;;25.80;60.70;;;;;;5065695;28;20512;-88
2021/07/19 08:59:32;;;;;;;7.72;7.03;;;25.70;61.60;;;;;;5065202;28;20180;-87
2021/07/19 09:02:01;;;;;;;10.15;6.72;;;25.70;60.90;;;;;;5047922;28;20419;-87
2021/07/19 09:04:27;;;;;;;8.52;6.75;;;25.70;62.50;;;;;;5047746;28;20203;-87
2021/07/19 09:06:53;;;;;;;11.43;6.68;;;25.80;61.10;;;;;;5031584;28;20234;-87
2021/07/19 09:09:30;;;;;;;15.48;7.28;;;25.70;62.50;;;;;;5072012;28;20172;-87
2021/07/19 09:11:57;;;;;;;10.57;6.78;;;25.90;61.10;;;;;;5084608;28;20218;-88
2021/07/19 09:14:23;;;;;;;10.88;7.32;;;26.00;61.80;;;;;;5085847;28;20225;-87
2021/07/19 09:16:50;;;;;;;7.95;7.15;;;25.80;62.00;;;;;;5084610;28;20317;-88
2021/07/19 09:19:18;;;;;;;8.98;6.38;;;25.90;60.50;;;;;;5062653;28;20184;-87
2021/07/19 09:21:47;;;;;;;7.00;6.40;;;25.90;61.40;;;;;;5085341;28;20204;-88
2021/07/19 09:24:26;;;;;;;8.60;6.88;;;26.00;61.50;;;;;;5086247;28;20252;-88
2021/07/19 09:26:53;;;;;;;7.63;6.90;;;26.20;60.60;;;;;;5084171;28;20191;-88
2021/07/19 09:29:20;;;;;;;7.90;6.88;;;26.40;59.60;;;;;;5085378;28;20184;-87
2021/07/19 09:31:57;;;;;;;7.38;6.65;;;26.40;60.30;;;;;;5085383;28;20195;-87
2021/07/19 09:34:25;;;;;;;8.30;6.70;;;26.40;59.70;;;;;;5075768;28;20283;-88
2021/07/19 09:37:11;;;;;;;8.18;6.68;;;26.60;60.20;;;;;;5084995;28;20198;-87
2021/07/19 09:39:53;;;;;;;6.93;6.00;;;26.80;59.20;;;;;;5084856;28;20182;-88
2021/07/19 09:42:21;;;;;;;6.90;6.15;;;27.00;59.40;;;;;;5049644;28;20318;-89
2021/07/19 09:44:58;;;;;;;8.80;6.03;;;27.10;57.20;;;;;;5075833;28;20285;-87
2021/07/19 09:47:40;;;;;;;7.47;5.78;;;27.30;57.10;;;;;;5075615;28;20256;-88
2021/07/19 09:50:14;;;;;;;7.50;6.18;;;27.50;57.00;;;;;;5067859;28;20201;-88
2021/07/19 09:52:41;;;;;;;6.57;5.95;;;27.80;56.00;;;;;;5072225;28;20206;-88
2021/07/19 09:55:24;;;;;;;7.20;6.47;;;28.10;55.30;;;;;;5072206;28;20214;-88
2021/07/19 09:57:54;;;;;;;7.72;6.90;;;28.20;55.60;;;;;;5076484;28;20192;-90
2021/07/19 10:00:21;;;;;;;9.35;6.63;;;28.20;53.90;;;;;;5069989;28;20206;-89
2021/07/19 10:02:46;;;;;;;7.75;6.90;;;27.90;54.60;;;;;;5059393;28;20207;-89
2021/07/19 10:05:26;;;;;;;10.57;6.38;;;28.00;54.90;;;;;;5057382;28;20184;-89
2021/07/19 10:07:52;;;;;;;10.82;6.30;;;28.00;54.90;;;;;;5075609;28;20225;-89
2021/07/19 10:10:18;;;;;;;8.00;6.80;;;28.30;56.30;;;;;;5077255;28;20213;-88
2021/07/19 10:12:44;;;;;;;6.40;5.85;;;28.40;55.00;;;;;;5077467;28;20203;-88
2021/07/19 10:15:12;;;;;;;6.45;5.82;;;28.80;53.70;;;;;;5078440;28;20189;-88
2021/07/19 10:17:40;;;;;;;10.02;6.40;;;29.00;52.60;;;;;;5056807;28;20550;-88
2021/07/19 10:20:06;;;;;;;9.85;6.30;;;29.10;52.60;;;;;;5082712;28;20215;-88
2021/07/19 10:22:32;;;;;;;11.63;6.90;;;29.30;51.90;;;;;;5045051;28;20223;-89
2021/07/19 10:24:58;;;;;;;7.00;6.38;;;29.30;51.10;;;;;;5065003;28;20185;-89
2021/07/19 10:27:27;;;;;;;6.68;5.90;;;29.20;51.70;;;;;;5073133;28;20291;-89
2021/07/19 10:29:53;;;;;;;8.18;6.63;;;29.30;51.30;;;;;;5059399;28;20551;-89
2021/07/19 10:32:24;;;;;;;7.40;6.10;;;29.50;50.10;;;;;;5080752;28;20284;-90
2021/07/19 10:34:51;;;;;;;6.88;5.72;;;29.60;48.80;;;;;;5075925;28;20176;-89
2021/07/19 10:37:29;;;;;;;6.82;6.07;;;29.60;49.70;;;;;;5083474;28;20222;-89
2021/07/19 10:39:57;;;;;;;6.95;6.30;;;29.50;49.50;;;;;;5066293;28;20245;-89
2021/07/19 10:42:34;;;;;;;9.60;5.60;;;29.70;48.20;;;;;;5049319;28;20192;-90
2021/07/19 10:45:11;;;;;;;5.60;4.95;;;30.10;47.70;;;;;;5085060;28;20167;-90
2021/07/19 10:47:54;;;;;;;7.05;5.78;;;30.40;46.40;;;;;;5082445;28;20187;-90
2021/07/19 10:50:28;;;;;;;6.15;5.35;;;30.60;48.10;;;;;;5080604;28;20224;-90
2021/07/19 10:52:56;;;;;;;27.48;7.25;;;30.70;48.30;;;;;;5071427;28;20203;-90
2021/07/19 10:55:32;;;;;;;5.55;5.07;;;30.90;48.30;;;;;;5081199;28;20182;-90
2021/07/19 10:58:16;;;;;;;5.30;4.88;;;30.60;47.30;;;;;;5047182;28;20255;-90
2021/07/19 11:00:45;;;;;;;6.18;5.68;;;30.30;48.60;;;;;;5062335;28;20223;-90
2021/07/19 11:03:15;;;;;;;5.80;5.20;;;30.40;47.80;;;;;;5061980;28;20228;-90
2021/07/19 11:05:46;;;;;;;5.63;5.10;;;30.10;48.70;;;;;;5058023;28;20199;-90
2021/07/19 11:08:26;;;;;;;7.53;5.57;;;29.80;47.40;;;;;;5080463;28;20234;-90
2021/07/19 11:10:54;;;;;;;5.70;4.97;;;29.80;49.10;;;;;;5081117;28;20186;-90
2021/07/19 11:13:25;;;;;;;5.13;4.72;;;30.10;47.10;;;;;;5082125;28;20306;-90
2021/07/19 11:15:51;;;;;;;6.03;5.53;;;30.10;46.60;;;;;;5081673;28;20175;-90
2021/07/19 11:18:29;;;;;;;7.18;5.57;;;30.40;46.50;;;;;;5063712;28;20191;-90
2021/07/19 11:21:04;;;;;;;5.75;5.35;;;30.50;46.40;;;;;;5045875;28;20713;-90
2021/07/19 11:23:31;;;;;;;6.68;5.75;;;30.80;45.90;;;;;;5066372;28;20183;-90
2021/07/19 11:25:59;;;;;;;7.28;5.60;;;30.90;45.50;;;;;;5042926;28;20232;-89
2021/07/19 11:28:29;;;;;;;5.97;5.57;;;30.90;45.80;;;;;;5060120;28;20212;-89
2021/07/19 11:31:12;;;;;;;6.60;5.43;;;31.10;45.10;;;;;;5041794;28;20454;-89
2021/07/19 11:33:43;;;;;;;6.85;6.18;;;31.00;44.20;;;;;;5063879;28;20186;-90
2021/07/19 11:36:18;;;;;;;6.22;5.32;;;30.80;44.00;;;;;;5069630;28;20239;-89
2021/07/19 11:38:44;;;;;;;6.53;5.63;;;30.80;43.70;;;;;;5071771;28;20195;-90
2021/07/19 11:41:19;;;;;;;10.75;6.15;;;31.00;43.70;;;;;;5069291;28;20218;-89
2021/07/19 11:43:46;;;;;;;7.57;5.32;;;31.50;42.50;;;;;;5068130;28;20189;-89
2021/07/19 11:46:13;;;;;;;6.00;5.60;;;31.70;42.60;;;;;;5065085;28;20177;-90
2021/07/19 11:48:42;;;;;;;6.20;5.57;;;31.80;42.90;;;;;;5033062;28;20187;-89
2021/07/19 11:51:08;;;;;;;7.00;6.30;;;32.00;41.50;;;;;;5065309;28;20691;-90
2021/07/19 11:53:40;;;;;;;7.32;5.75;;;31.50;42.30;;;;;;5074453;28;20191;-90
2021/07/19 11:56:06;;;;;;;6.85;6.20;;;31.70;42.20;;;;;;5065518;28;20188;-90
2021/07/19 11:58:32;;;;;;;5.90;5.50;;;31.60;42.90;;;;;;5052392;28;20188;-90
2021/07/19 12:01:02;;;;;;;6.63;5.97;;;31.80;43.00;;;;;;5066192;28;20279;-91
2021/07/19 12:03:31;;;;;;;6.15;5.55;;;31.90;41.80;;;;;;5077995;28;20269;-91
2021/07/19 12:05:59;;;;;;;6.47;5.90;;;31.80;41.60;;;;;;5060687;28;20184;-90
2021/07/19 12:08:26;;;;;;;26.90;8.68;;;31.60;40.20;;;;;;5054021;28;20599;-90
2021/07/19 12:11:10;;;;;;;10.48;5.95;;;31.70;41.20;;;;;;5074357;28;20192;-89
2021/07/19 12:13:38;;;;;;;7.75;6.10;;;31.80;41.40;;;;;;5070860;28;20188;-89
2021/07/19 12:16:04;;;;;;;6.65;5.88;;;31.90;40.10;;;;;;5070666;28;20214;-89
2021/07/19 12:18:41;;;;;;;12.30;6.68;;;31.60;41.70;;;;;;5062647;28;20195;-89
2021/07/19 12:21:12;;;;;;;6.97;6.25;;;32.10;42.90;;;;;;5070856;28;20208;-88
2021/07/19 12:23:47;;;;;;;5.60;5.10;;;31.90;40.80;;;;;;5069928;28;20212;-89
2021/07/19 12:26:29;;;;;;;6.20;5.70;;;31.90;40.30;;;;;;5065929;28;20204;-89
2021/07/19 12:29:02;;;;;;;5.97;5.38;;;32.10;41.60;;;;;;5048752;28;20187;-89
2021/07/19 12:31:43;;;;;;;6.50;5.90;;;32.00;41.20;;;;;;5083604;28;20207;-89
2021/07/19 12:34:29;;;;;;;6.53;5.47;;;32.10;39.70;;;;;;5061790;28;20195;-88
2021/07/19 12:37:03;;;;;;;6.55;5.75;;;31.70;39.90;;;;;;5058158;28;20243;-87
2021/07/19 12:39:41;;;;;;;6.47;5.88;;;32.00;40.90;;;;;;5076186;28;20183;-88
2021/07/19 12:42:12;;;;;;;9.02;5.70;;;32.60;39.70;;;;;;5068454;28;20294;-88
2021/07/19 12:44:39;;;;;;;8.63;6.20;;;32.70;39.70;;;;;;5076846;28;20180;-89
2021/07/19 12:47:05;;;;;;;6.30;5.72;;;32.70;38.10;;;;;;5073340;28;20203;-87
2021/07/19 12:49:36;;;;;;;7.15;5.72;;;32.60;38.00;;;;;;5070862;28;20724;-88
2021/07/19 12:52:11;;;;;;;10.75;6.30;;;33.10;37.30;;;;;;5075814;28;20208;-89